Latest Coastal Weather Observations for Port Macquarie Airport

IDN60701

Issued at 9:51 pm EST Wednesday 23 August 2017 (issued every 10 minutes, with the page automatically refreshed every 10 minutes)

About coastal observations | Map of coastal stations | Coastal observations for NSW | Marine services | Other Formats
Station Details ID: 060139 Name: PORT MACQUARIE AIRPORT AWS Lat: -31.43 Lon: 152.87 Height: 4.2 m
Data from the previous 72 hours. | See also: Recent months at Port Macquarie Airport
Date/Time
EST
Temp
°C
Wind Pressure Rain since
9am
mm
Weather Cloud Vis
km
Sea
Height
m
Swell
Dir  Spd
kts
Gust
kts
hPa Trend Height
m
Period
s
Dir
23/09:36pm 13.3 CALM 0 0 1017.2 - 0.0 - - 5 - - - -
23/09:30pm 13.2 CALM 0 0 1017.3 - 0.0 - - 10 - - - -
23/09:00pm 13.9 CALM 0 0 1017.3 - 0.0 - Mostly clear 10 - - - -
23/08:30pm 14.4 CALM 0 0 1017.4 - 0.0 - Partly cloudy 10 - - - -
23/08:00pm 14.6 CALM 0 0 1017.4 - 0.0 - Partly cloudy 10 - - - -
23/07:30pm 15.3 N 3 4 1017.3 - 0.0 - Partly cloudy 10 - - - -
23/07:00pm 16.5 N 4 6 1017.3 - 0.0 - Partly cloudy 10 - - - -
23/06:30pm 17.4 N 4 5 1017.1 - 0.0 - Partly cloudy 10 - - - -
23/06:00pm 18.2 NNE 6 7 1016.9 - 0.0 - Mostly clear 10 - - - -
23/05:30pm 19.0 NNE 7 11 1016.6 - 0.0 - Partly cloudy 10 - - - -
23/05:00pm 19.6 NNE 8 12 1016.5 - 0.0 - - 10 - - - -
23/04:30pm 19.9 NE 10 16 1016.2 - 0.0 - - 10 - - - -
23/04:00pm 20.4 NE 12 18 1016.1 - 0.0 - - 10 - - - -
23/03:30pm 20.6 NE 13 17 1016.2 - 0.0 - - 10 - - - -
23/03:00pm 21.1 NE 13 18 1016.2 - 0.0 - - 10 - - - -
23/02:30pm 21.5 NE 10 14 1016.7 - 0.0 - - 10 - - - -
23/02:00pm 21.4 NE 11 15 1016.8 - 0.0 - - 10 - - - -
23/01:30pm 21.1 NE 12 18 1017.2 - 0.0 - - 10 - - - -
23/01:00pm 21.1 NE 11 16 1017.6 - 0.0 - Partly cloudy 10 - - - -
23/12:30pm 20.3 NE 12 16 1018.1 - 0.0 - Partly cloudy 10 - - - -
23/12:00pm 20.5 NE 11 17 1018.7 - 0.0 - Partly cloudy 10 - - - -
23/11:30am 20.1 ENE 7 11 1019.3 - 0.0 - Partly cloudy 10 - - - -
23/11:00am 19.7 NNE 3 5 1019.9 - 0.0 - Partly cloudy 10 - - - -
23/10:30am 19.4 N 5 8 1020.2 - 0.0 - Partly cloudy 10 - - - -
23/10:00am 18.5 NNW 4 6 1020.5 - 0.0 - Partly cloudy 10 - - - -
23/09:30am 16.7 NNW 5 7 1020.9 - 0.0 - - 10 - - - -
23/09:00am 15.7 NW 4 5 1020.9 - 0.0 - - 10 - - - -
23/08:30am 13.8 WNW 5 7 1021.0 - 0.0 - Partly cloudy 10 - - - -
23/08:00am 11.8 WNW 3 4 1020.9 - 0.0 - Partly cloudy 10 - - - -
23/07:30am 10.3 NW 3 4 1021.1 - 0.0 - Partly cloudy 10 - - - -
23/07:00am 9.4 CALM 0 3 1020.9 - 0.0 - Partly cloudy 10 - - - -
23/06:30am 8.7 NW 1 4 1020.8 - 0.0 - Partly cloudy 10 - - - -
23/06:00am 9.4 W 4 5 1020.6 - 0.0 - Cloudy 10 - - - -
23/05:40am 8.6 W 3 5 1020.5 - 0.0 - Partly cloudy 10 - - - -
23/05:30am 8.2 NW 3 4 1020.5 - 0.0 - Partly cloudy 5 - - - -
23/05:19am 6.7 NW 2 4 1020.4 - 0.0 - Partly cloudy 4 - - - -
23/05:00am 8.5 CALM 0 0 1020.2 - 0.0 - - 10 - - - -
23/04:30am 9.2 W 3 5 1020.2 - 0.0 - - 10 - - - -
23/04:00am 8.6 W 1 3 1020.2 - 0.0 - - 10 - - - -
23/03:30am 9.1 WNW 1 3 1020.2 - 0.0 - - 10 - - - -
23/03:00am 9.5 CALM 0 3 1020.1 - 0.0 - - 10 - - - -
23/02:30am 9.1 CALM 0 3 1020.1 - 0.0 - - 10 - - - -
23/02:00am 9.5 WNW 3 4 1020.3 - 0.0 - - 10 - - - -
23/01:30am 9.9 NW 1 3 1020.5 - 0.0 - - 10 - - - -
23/01:00am 9.0 WNW 4 6 1020.9 - 0.0 - - 10 - - - -
23/12:30am 7.6 CALM 0 0 1021.0 - 0.0 - - 10 - - - -
23/12:05am 7.0 CALM 0 0 1021.1 - 0.0 - - 10 - - - -
23/12:00am 7.8 CALM 0 2 1021.1 - 0.0 - - 10 - - - -
 
Date/Time
EST
Temp
°C
Wind Pressure Rain since
9am
mm
Weather Cloud Vis
km
Sea
Height
m
Swell
Dir  Spd
kts
Gust
kts
hPa Trend Height
m
Period
s
Dir
22/11:30pm 8.0 WNW 1 4 1021.3 - 0.0 - - 2 - - - -
22/11:28pm 7.9 WNW 1 4 1021.3 - 0.0 - - 5 - - - -
22/11:25pm 6.5 W 2 4 1021.3 - 0.0 - - 10 - - - -
22/11:00pm 7.7 CALM 0 0 1021.3 - 0.0 - - 1 - - - -
22/10:50pm 7.3 CALM 0 0 1021.4 - 0.0 - - 3 - - - -
22/10:30pm 8.3 CALM 0 0 1021.6 - 0.0 - - 10 - - - -
22/10:00pm 9.3 CALM 0 3 1021.7 - 0.0 - Partly cloudy 10 - - - -
22/09:30pm 9.2 WSW 3 5 1021.6 - 0.0 - Partly cloudy 10 - - - -
22/09:00pm 10.6 WNW 4 5 1021.4 - 0.0 - - 10 - - - -
22/08:30pm 10.7 CALM 0 0 1021.3 - 0.0 - - 10 - - - -
22/08:00pm 11.1 CALM 0 0 1021.1 - 0.0 - Partly cloudy 10 - - - -
22/07:30pm 12.3 CALM 0 0 1020.8 - 0.0 - - 10 - - - -
22/07:00pm 13.0 SW 4 4 1020.4 - 0.0 - Partly cloudy 10 - - - -
22/06:30pm 13.4 SW 1 3 1020.2 - 0.0 - Partly cloudy 10 - - - -
22/06:00pm 14.7 SW 3 4 1019.6 - 0.0 - Partly cloudy 10 - - - -
22/05:30pm 16.4 SSW 5 6 1019.3 - 0.0 - Partly cloudy 10 - - - -
22/05:00pm 18.1 S 6 9 1018.9 - 0.0 - Partly cloudy 10 - - - -
22/04:30pm 18.9 S 8 12 1018.3 - 0.0 - - 10 - - - -
22/04:00pm 19.4 S 10 14 1017.9 - 0.0 - - 10 - - - -
22/03:30pm 19.8 SSE 11 15 1017.6 - 0.0 - - 10 - - - -
22/03:00pm 19.9 S 11 16 1017.4 - 0.0 - - 10 - - - -
22/02:30pm 20.6 SSE 10 14 1017.2 - 0.0 - - 10 - - - -
22/02:00pm 20.2 S 11 15 1017.3 - 0.0 - - 10 - - - -
22/01:30pm 20.8 S 11 16 1017.2 - 0.0 - - 10 - - - -
22/01:00pm 20.9 S 13 16 1017.1 - 0.0 - - 10 - - - -
22/12:30pm 21.1 S 11 15 1017.4 - 0.0 - - 10 - - - -
22/12:00pm 20.5 S 9 13 1017.7 - 0.0 - - 10 - - - -
22/11:30am 20.5 S 9 12 1018.0 - 0.0 - - 10 - - - -
22/11:00am 20.0 SSW 7 10 1018.0 - 0.0 - - 10 - - - -
22/10:30am 18.7 S 7 9 1018.2 - 0.0 - - 10 - - - -
22/10:00am 18.4 SW 4 7 1018.4 - 0.0 - - 10 - - - -
22/09:30am 16.5 WSW 3 4 1018.4 - 0.0 - - 9 - - - -
22/09:00am 14.6 WSW 6 7 1018.5 - 0.0 - Mostly clear 10 - - - -
22/08:30am 13.0 WNW 7 9 1018.6 - 0.0 - - 10 - - - -
22/08:00am 10.8 WNW 3 5 1018.4 - 0.0 - Partly cloudy 10 - - - -
22/07:30am 9.7 WSW 1 4 1018.3 - 0.0 - Cloudy 10 - - - -
22/07:00am 8.8 CALM 0 0 1018.0 - 0.0 - - 10 - - - -
22/06:30am 9.3 WSW 4 6 1017.5 - 0.0 - - 10 - - - -
22/06:00am 9.3 WNW 4 7 1017.3 - 0.0 - Cloudy 10 - - - -
22/05:30am 8.4 W 3 5 1017.1 - 0.0 - - 10 - - - -
22/05:00am 7.9 WSW 3 5 1017.0 - 0.0 - - 10 - - - -
22/04:30am 7.4 W 3 4 1016.9 - 0.0 - - 10 - - - -
22/04:00am 7.3 W 3 5 1016.7 - 0.0 - - 10 - - - -
22/03:30am 6.9 WSW 3 5 1016.6 - 0.0 - - 10 - - - -
22/03:00am 7.4 WSW 3 4 1016.6 - 0.0 - Mostly cloudy 10 - - - -
22/02:59am 7.4 W 3 4 1016.6 - 0.0 - - 10 - - - -
22/02:30am 7.5 CALM 0 0 1016.6 - 0.0 - - 3 - - - -
22/02:29am 7.6 CALM 0 0 1016.6 - 0.0 - - 5 - - - -
22/02:21am 7.5 CALM 0 0 1016.7 - 0.0 - - 10 - - - -
22/02:00am 6.8 CALM 0 0 1016.7 - 0.0 - - 1 - - - -
22/01:54am 6.6 CALM 0 0 1016.8 - 0.0 - - 3 - - - -
22/01:30am 7.8 N 1 3 1017.1 - 0.0 - - 10 - - - -
22/01:00am 8.0 CALM 0 3 1017.4 - 0.0 - - 10 - - - -
22/12:30am 7.8 WSW 3 4 1017.5 - 0.0 - - 10 - - - -
22/12:00am 8.5 CALM 0 0 1017.6 - 0.0 - Cloudy 10 - - - -
 
Date/Time
EST
Temp
°C
Wind Pressure Rain since
9am
mm
Weather Cloud Vis
km
Sea
Height
m
Swell
Dir  Spd
kts
Gust
kts
hPa Trend Height
m
Period
s
Dir
21/11:30pm 8.9 CALM 0 0 1017.8 - 0.0 - - 10 - - - -
21/11:00pm 9.0 CALM 0 0 1018.1 - 0.0 - - 10 - - - -
21/10:30pm 9.5 CALM 0 0 1018.0 - 0.0 - Partly cloudy 10 - - - -
21/10:00pm 10.2 CALM 0 0 1018.2 - 0.0 - Cloudy 10 - - - -
21/09:30pm 10.3 CALM 0 0 1018.0 - 0.0 - Partly cloudy 10 - - - -
21/09:00pm 10.6 CALM 0 0 1018.0 - 0.0 - Cloudy 10 - - - -
21/08:30pm 11.6 NNW 1 3 1017.7 - 0.0 - Cloudy 10 - - - -
21/08:00pm 11.6 NW 3 5 1017.8 - 0.0 - Partly cloudy 10 - - - -
21/07:30pm 11.4 WNW 3 5 1017.6 - 0.0 - Partly cloudy 10 - - - -
21/07:00pm 11.8 CALM 0 0 1017.5 - 0.0 - Partly cloudy 10 - - - -
21/06:30pm 12.2 W 1 4 1017.7 - 0.0 - Partly cloudy 10 - - - -
21/06:00pm 12.8 CALM 0 0 1017.6 - 0.0 - Cloudy 10 - - - -
21/05:30pm 13.3 CALM 0 0 1017.5 - 0.0 - Partly cloudy 10 - - - -
21/05:00pm 14.2 WSW 4 5 1017.7 - 0.0 - Cloudy 10 - - - -
21/04:30pm 14.8 S 3 4 1017.3 - 0.0 - Partly cloudy 10 - - - -
21/04:00pm 15.4 CALM 0 0 1017.4 - 0.0 - Partly cloudy 10 - - - -
21/03:30pm 16.0 NNW 3 5 1017.5 - 0.0 - Cloudy 10 - - - -
21/03:00pm 15.9 N 5 7 1017.3 - 0.0 - Cloudy 10 - - - -
21/02:30pm 16.0 NNE 8 10 1017.2 - 0.0 - Partly cloudy 10 - - - -
21/02:00pm 16.6 N 7 10 1017.4 - 0.0 - - 10 - - - -
21/01:30pm 16.5 N 8 12 1017.6 - 0.0 - - 10 - - - -
21/01:00pm 16.4 N 7 9 1017.9 - 0.0 - - 10 - - - -
21/12:30pm 16.1 N 7 11 1018.3 - 0.0 - - 10 - - - -
21/12:00pm 16.0 NNE 6 8 1018.9 - 0.0 - Mostly clear 10 - - - -
21/11:30am 15.1 N 5 6 1020.0 - 0.0 - - 10 - - - -
21/11:00am 14.3 NNW 5 8 1020.7 - 0.0 - - 10 - - - -
21/10:30am 12.5 NW 5 7 1020.9 - 0.0 - - 10 - - - -
21/10:00am 11.8 NW 4 6 1020.9 - 0.0 - - 10 - - - -
21/09:30am 12.0 NW 5 6 1021.0 - 0.0 - - 10 - - - -
21/09:00am 11.6 NW 5 7 1021.2 - 0.0 - Mostly clear 10 - - - -
21/08:30am 11.5 NNW 4 5 1021.4 - 0.0 - - 10 - - - -
21/08:00am 10.5 WNW 6 9 1021.6 - 0.0 - - 10 - - - -
21/07:30am 8.6 NW 2 6 1021.2 - 0.0 - - 10 - - - -
21/07:00am 7.7 NW 2 5 1021.0 - 0.0 - - 10 - - - -
21/06:30am 6.9 WNW 4 7 1021.1 - 0.0 - - 10 - - - -
21/06:00am 4.9 NW 2 3 1020.4 - 0.0 - - 10 - - - -
21/05:30am 5.8 WSW 2 4 1020.2 - 0.0 - - 10 - - - -
21/05:00am 7.3 WNW 3 5 1020.4 - 0.0 - - 10 - - - -
21/04:30am 7.8 W 5 7 1020.2 - 0.0 - - 10 - - - -
21/04:00am 7.8 W 4 6 1020.4 - 0.0 - - 10 - - - -
21/03:30am 7.6 WNW 5 6 1020.5 - 0.0 - - 10 - - - -
21/03:00am 7.3 SW 1 5 1020.3 - 0.0 - - 10 - - - -
21/02:30am 7.5 WNW 2 4 1020.4 - 0.0 - - 10 - - - -
21/02:00am 8.1 WSW 2 6 1020.5 - 0.0 - - 10 - - - -
21/01:30am 9.3 W 8 11 1020.8 - 0.0 - - 10 - - - -
21/01:00am 8.9 WNW 6 8 1021.0 - 0.0 - - 10 - - - -
21/12:30am 8.2 W 3 6 1021.1 - 0.0 - - 10 - - - -
21/12:00am 8.3 SW 2 5 1021.2 - 0.0 - - 10 - - - -
 
Date/Time
EST
Temp
°C
Wind Pressure Rain since
9am
mm
Weather Cloud Vis
km
Sea
Height
m
Swell
Dir  Spd
kts
Gust
kts
hPa Trend Height
m
Period
s
Dir
20/11:30pm 10.2 W 7 10 1021.4 - 0.0 - - 10 - - - -
20/11:00pm 10.6 W 10 14 1021.6 - 0.0 - - 10 - - - -
20/10:30pm 10.3 W 9 13 1021.7 - 0.0 - - 10 - - - -
20/10:00pm 10.5 W 10 13 1021.8 - 0.0 - - 10 - - - -

Other Formats:

Comma delimited format used in spreadsheet applications
http://www.bom.gov.au/fwo/IDN60701/IDN60701.94786.axf

JavaScript Object Notation format (JSON) in row-major order
http://www.bom.gov.au/fwo/IDN60701/IDN60701.94786.json